createdAt,value
2023-05-07T00:02:09.650Z,86.62
2023-05-07T00:05:18.521Z,86.97
2023-05-07T00:08:28.819Z,86.33
2023-05-07T00:11:38.060Z,86.67
2023-05-07T00:14:46.575Z,86.71
2023-05-07T00:17:55.402Z,85.93
2023-05-07T00:21:03.963Z,86.10
2023-05-07T00:24:14.067Z,87.22
2023-05-07T00:27:22.838Z,87.04
2023-05-07T00:30:31.320Z,87.55
2023-05-07T00:33:40.678Z,87.20
2023-05-07T00:36:49.183Z,86.49
2023-05-07T00:39:59.196Z,86.92
2023-05-07T00:43:07.753Z,86.83
2023-05-07T00:46:17.064Z,86.80
2023-05-07T00:49:31.775Z,88.05
2023-05-07T00:52:40.883Z,87.25
2023-05-07T00:55:51.250Z,87.48
2023-05-07T00:59:01.319Z,87.18
2023-05-07T01:02:10.300Z,86.11
2023-05-07T01:05:21.214Z,86.11
2023-05-07T01:08:31.693Z,86.46
2023-05-07T01:11:43.654Z,86.75
2023-05-07T01:14:52.657Z,87.14
2023-05-07T01:18:01.239Z,87.30
2023-05-07T01:21:17.555Z,86.23
2023-05-07T01:24:33.668Z,86.50
2023-05-07T01:27:43.371Z,86.76
2023-05-07T01:30:54.896Z,87.05
2023-05-07T01:34:06.210Z,86.87
2023-05-07T01:37:15.407Z,87.36
2023-05-07T01:40:26.812Z,86.85
2023-05-07T01:43:36.082Z,86.99
2023-05-07T01:46:44.804Z,87.54
2023-05-07T01:49:54.345Z,87.08
2023-05-07T01:53:04.385Z,87.46
2023-05-07T01:56:15.677Z,86.55
2023-05-07T01:59:25.197Z,86.93
2023-05-07T02:02:33.903Z,86.65
2023-05-07T02:05:42.960Z,86.62
2023-05-07T02:09:09.915Z,87.09
2023-05-07T02:12:21.603Z,86.65
2023-05-07T02:15:30.252Z,87.27
2023-05-07T02:18:40.456Z,87.51
2023-05-07T02:21:49.045Z,87.14
2023-05-07T02:24:57.961Z,87.26
2023-05-07T02:28:07.958Z,87.61
2023-05-07T02:31:26.897Z,87.21
2023-05-07T02:34:35.843Z,87.49
2023-05-07T02:37:44.446Z,87.46
2023-05-07T02:40:53.093Z,87.32
2023-05-07T02:44:03.102Z,87.56
2023-05-07T02:47:14.006Z,87.80
2023-05-07T02:50:23.870Z,87.66
2023-05-07T02:53:32.772Z,87.27
2023-05-07T02:56:41.290Z,87.64
2023-05-07T02:59:51.722Z,87.08
2023-05-07T03:03:02.171Z,87.62
2023-05-07T03:06:11.463Z,87.43
2023-05-07T03:09:20.362Z,88.21
2023-05-07T03:12:28.980Z,88.05
2023-05-07T03:15:38.842Z,88.27
2023-05-07T03:18:47.435Z,88.43
2023-05-07T03:21:56.518Z,88.23
2023-05-07T03:25:05.517Z,88.43
2023-05-07T03:28:13.953Z,88.06
2023-05-07T03:31:30.373Z,87.80
2023-05-07T03:34:39.129Z,88.82
2023-05-07T03:37:48.876Z,88.63
2023-05-07T03:40:58.001Z,88.22
2023-05-07T03:44:06.985Z,88.85
2023-05-07T03:47:17.240Z,88.60
2023-05-07T03:50:27.358Z,87.86
2023-05-07T03:53:36.065Z,88.18
2023-05-07T03:56:44.627Z,88.54
2023-05-07T03:59:53.288Z,87.76
2023-05-07T04:03:03.252Z,88.27
2023-05-07T04:06:13.360Z,87.97
2023-05-07T04:09:26.252Z,88.78
2023-05-07T04:12:34.808Z,88.35
2023-05-07T04:15:43.976Z,89.81
2023-05-07T04:18:58.118Z,89.44
2023-05-07T04:22:06.726Z,89.11
2023-05-07T04:25:15.561Z,88.46
2023-05-07T04:28:24.370Z,87.96
2023-05-07T04:31:33.918Z,87.29
2023-05-07T04:34:43.825Z,87.62
2023-05-07T04:37:52.578Z,86.65
2023-05-07T04:41:04.864Z,86.42
2023-05-07T04:44:13.629Z,85.92
2023-05-07T04:47:22.590Z,85.83
2023-05-07T04:50:32.510Z,85.76
2023-05-07T04:53:44.209Z,84.55
2023-05-07T04:56:53.446Z,84.44
2023-05-07T05:00:01.964Z,84.96
2023-05-07T05:03:13.927Z,84.02
2023-05-07T05:06:23.982Z,83.14
2023-05-07T05:09:34.090Z,83.35
2023-05-07T05:12:43.474Z,82.82
2023-05-07T05:15:52.778Z,83.10
2023-05-07T05:19:03.703Z,82.51
2023-05-07T05:22:19.169Z,83.16
2023-05-07T05:25:28.614Z,82.66
2023-05-07T05:28:38.712Z,83.21
2023-05-07T05:31:47.484Z,82.75
2023-05-07T05:34:56.621Z,82.49
2023-05-07T05:38:06.623Z,82.50
2023-05-07T05:41:16.362Z,82.50
2023-05-07T05:44:25.231Z,82.97
2023-05-07T05:47:33.906Z,82.41
2023-05-07T05:50:44.744Z,79.93
2023-05-07T05:53:54.627Z,75.10
2023-05-07T05:57:05.127Z,70.72
2023-05-07T06:00:14.828Z,66.15
2023-05-07T06:03:29.026Z,63.90
2023-05-07T06:06:40.084Z,61.61
2023-05-07T06:09:50.340Z,58.77
2023-05-07T06:12:59.268Z,52.73
2023-05-07T06:16:08.956Z,48.14
2023-05-07T06:19:19.088Z,45.74
2023-05-07T06:22:27.901Z,47.36
2023-05-07T06:25:38.518Z,45.11
2023-05-07T06:28:47.444Z,42.02
2023-05-07T06:31:57.501Z,38.63
2023-05-07T06:35:06.809Z,37.71
2023-05-07T06:38:18.591Z,39.18
2023-05-07T06:41:29.440Z,38.46
2023-05-07T06:44:42.618Z,39.91
2023-05-07T06:47:54.780Z,40.89
2023-05-07T06:51:05.050Z,38.85
2023-05-07T06:54:14.521Z,39.85
2023-05-07T06:57:26.802Z,38.37
2023-05-07T07:00:36.007Z,40.21
2023-05-07T07:03:44.542Z,39.56
2023-05-07T07:06:55.915Z,41.40
2023-05-07T07:10:05.782Z,42.15
2023-05-07T07:13:15.901Z,40.31
2023-05-07T07:16:24.708Z,41.64
2023-05-07T07:19:34.161Z,39.29
2023-05-07T07:22:45.309Z,39.79
2023-05-07T07:25:54.785Z,39.96
2023-05-07T07:29:05.115Z,38.16
2023-05-07T07:32:14.268Z,40.02
2023-05-07T07:35:25.630Z,44.17
2023-05-07T07:38:35.039Z,41.28
2023-05-07T07:41:44.210Z,43.52
2023-05-07T07:44:55.029Z,45.24
2023-05-07T07:48:05.843Z,43.67
2023-05-07T07:51:18.604Z,42.46
2023-05-07T07:54:27.778Z,40.04
2023-05-07T07:57:37.040Z,39.60
2023-05-07T08:00:48.743Z,40.57
2023-05-07T08:03:58.992Z,45.20
2023-05-07T08:07:08.800Z,46.58
2023-05-07T08:10:22.631Z,49.67
2023-05-07T08:13:35.962Z,47.47
2023-05-07T08:16:46.461Z,50.54
2023-05-07T08:19:55.737Z,47.84
2023-05-07T08:23:04.451Z,49.25
2023-05-07T08:26:14.618Z,46.83
2023-05-07T08:29:23.924Z,46.37
2023-05-07T08:32:34.233Z,47.58
2023-05-07T08:35:42.963Z,47.19
2023-05-07T08:38:53.526Z,48.29
2023-05-07T08:42:05.655Z,47.47
2023-05-07T08:45:16.703Z,46.05
2023-05-07T08:48:29.295Z,44.10
2023-05-07T08:51:46.701Z,42.48
2023-05-07T08:54:56.519Z,43.52
2023-05-07T08:58:07.955Z,44.97
2023-05-07T09:01:25.864Z,45.12
2023-05-07T09:04:37.629Z,42.61
2023-05-07T09:07:46.868Z,43.63
2023-05-07T09:10:56.958Z,44.86
2023-05-07T09:14:07.488Z,46.12
2023-05-07T09:17:21.509Z,46.11
2023-05-07T09:20:33.141Z,44.77
2023-05-07T09:23:43.686Z,45.73
2023-05-07T09:26:52.685Z,44.55
2023-05-07T09:30:01.590Z,42.19
2023-05-07T09:33:10.947Z,44.43
2023-05-07T09:36:25.380Z,45.91
2023-05-07T09:39:42.934Z,42.66
2023-05-07T09:42:52.891Z,43.98
2023-05-07T09:46:05.483Z,43.60
2023-05-07T09:49:22.748Z,43.92
2023-05-07T09:52:36.339Z,42.73
2023-05-07T09:55:49.025Z,46.04
2023-05-07T09:59:01.373Z,42.09
2023-05-07T10:02:14.099Z,43.03
2023-05-07T10:05:30.813Z,42.33
2023-05-07T10:08:44.595Z,42.45
2023-05-07T10:11:53.882Z,43.79
2023-05-07T10:15:05.751Z,41.72
2023-05-07T10:18:15.937Z,41.91
2023-05-07T10:21:29.141Z,39.79
2023-05-07T10:24:44.722Z,38.83
2023-05-07T10:28:01.501Z,40.63
2023-05-07T10:31:20.536Z,43.58
2023-05-07T10:34:37.151Z,39.72
2023-05-07T10:37:47.679Z,39.68
2023-05-07T10:40:58.102Z,39.40
2023-05-07T10:44:07.094Z,38.59
2023-05-07T10:47:19.860Z,40.24
2023-05-07T10:50:31.872Z,38.61
2023-05-07T10:53:44.357Z,41.29
2023-05-07T10:57:36.703Z,37.84
2023-05-07T11:01:04.787Z,38.19
2023-05-07T11:04:25.447Z,36.90
2023-05-07T11:07:55.767Z,38.60
2023-05-07T11:11:06.023Z,40.87
2023-05-07T11:14:47.867Z,38.99
2023-05-07T11:18:08.083Z,37.19
2023-05-07T11:21:37.917Z,36.44
2023-05-07T11:25:07.941Z,36.98
2023-05-07T11:28:17.688Z,34.74
2023-05-07T11:31:36.816Z,37.99
2023-05-07T11:34:46.591Z,40.46
2023-05-07T11:38:01.341Z,40.38
2023-05-07T11:41:11.647Z,36.16
2023-05-07T11:44:20.439Z,38.08
2023-05-07T11:47:33.689Z,39.93
2023-05-07T11:50:53.728Z,40.96
2023-05-07T11:54:02.677Z,40.14
2023-05-07T11:57:17.783Z,41.00
2023-05-07T12:00:26.304Z,39.97
2023-05-07T12:03:37.479Z,39.87
2023-05-07T12:06:46.189Z,38.04
2023-05-07T12:09:56.139Z,37.33
2023-05-07T12:13:05.042Z,37.74
2023-05-07T12:16:14.536Z,38.45
2023-05-07T12:19:25.132Z,38.08
2023-05-07T12:22:34.052Z,37.52
2023-05-07T12:25:47.712Z,37.80
2023-05-07T12:28:59.538Z,40.06
2023-05-07T12:32:08.980Z,38.48
2023-05-07T12:35:19.589Z,39.74
2023-05-07T12:38:28.395Z,38.53
2023-05-07T12:41:55.179Z,38.65
2023-05-07T12:45:11.511Z,39.64
2023-05-07T12:48:22.367Z,40.57
2023-05-07T12:51:32.376Z,39.15
2023-05-07T12:54:41.103Z,39.99
2023-05-07T12:57:52.694Z,39.27
2023-05-07T13:01:02.863Z,39.82
2023-05-07T13:04:12.129Z,38.39
2023-05-07T13:07:30.766Z,38.98
2023-05-07T13:10:39.884Z,39.37
2023-05-07T13:13:48.602Z,38.49
2023-05-07T13:16:57.224Z,37.97
2023-05-07T13:20:06.774Z,37.23
2023-05-07T13:23:16.905Z,38.34
2023-05-07T13:26:27.127Z,38.16
2023-05-07T13:29:36.341Z,39.60
2023-05-07T13:32:46.612Z,37.91
2023-05-07T13:35:55.375Z,37.35
2023-05-07T13:39:07.152Z,38.70
2023-05-07T13:42:15.708Z,37.71
2023-05-07T13:45:26.934Z,39.13
2023-05-07T13:48:36.660Z,39.53
2023-05-07T13:51:45.450Z,40.29
2023-05-07T13:54:56.136Z,39.16
2023-05-07T13:58:07.402Z,40.33
2023-05-07T14:01:16.304Z,40.50
2023-05-07T14:04:25.135Z,39.20
2023-05-07T14:07:33.829Z,38.81
2023-05-07T14:10:43.761Z,39.85
2023-05-07T14:13:52.323Z,40.41
2023-05-07T14:17:01.389Z,39.91
2023-05-07T14:20:11.596Z,39.16
2023-05-07T14:23:20.585Z,39.95
2023-05-07T14:26:30.569Z,40.34
2023-05-07T14:29:39.038Z,39.67
2023-05-07T14:32:47.691Z,41.07
2023-05-07T14:35:56.619Z,41.64
2023-05-07T14:39:05.265Z,41.48
2023-05-07T14:42:15.503Z,42.20
2023-05-07T14:45:24.494Z,42.18
2023-05-07T14:48:33.008Z,41.62
2023-05-07T14:51:41.510Z,41.59
2023-05-07T14:54:51.783Z,41.80
2023-05-07T14:58:02.049Z,42.58
2023-05-07T15:01:10.741Z,42.12
2023-05-07T15:04:19.553Z,42.22
2023-05-07T15:07:29.436Z,41.97
2023-05-07T15:10:41.915Z,43.34
2023-05-07T15:13:52.333Z,42.39
2023-05-07T15:17:01.097Z,43.18
2023-05-07T15:20:10.799Z,42.81
2023-05-07T15:23:19.830Z,42.98
2023-05-07T15:26:32.429Z,43.02
2023-05-07T15:29:42.656Z,42.97
2023-05-07T15:32:51.728Z,41.86
2023-05-07T15:36:00.765Z,44.03
2023-05-07T15:39:09.668Z,42.25
2023-05-07T15:42:18.238Z,41.22
2023-05-07T15:45:28.528Z,42.39
2023-05-07T15:48:37.100Z,40.55
2023-05-07T15:51:45.799Z,41.29
2023-05-07T15:54:54.594Z,42.73
2023-05-07T15:58:05.098Z,42.60
2023-05-07T16:01:15.351Z,42.83
2023-05-07T16:04:24.171Z,43.13
2023-05-07T16:07:32.897Z,42.36
2023-05-07T16:10:41.412Z,43.97
2023-05-07T16:13:50.284Z,44.52
2023-05-07T16:17:00.384Z,45.36
2023-05-07T16:20:12.952Z,45.58
2023-05-07T16:23:21.674Z,46.32
2023-05-07T16:26:30.796Z,45.76
2023-05-07T16:29:40.017Z,45.67
2023-05-07T16:32:50.431Z,45.97
2023-05-07T16:35:59.147Z,46.38
2023-05-07T16:39:07.984Z,47.26
2023-05-07T16:42:16.480Z,47.21
2023-05-07T16:45:25.272Z,48.28
2023-05-07T16:48:35.253Z,46.88
2023-05-07T16:51:44.453Z,47.86
2023-05-07T16:54:55.146Z,47.49
2023-05-07T16:58:04.240Z,47.51
2023-05-07T17:01:15.429Z,47.64
2023-05-07T17:04:25.535Z,47.86
2023-05-07T17:07:34.160Z,48.54
2023-05-07T17:10:43.128Z,48.05
2023-05-07T17:13:51.988Z,49.01
2023-05-07T17:17:00.775Z,49.16
2023-05-07T17:20:12.328Z,49.29
2023-05-07T17:23:21.432Z,49.80
2023-05-07T17:26:31.569Z,49.49
2023-05-07T17:29:40.394Z,49.59
2023-05-07T17:32:49.252Z,49.50
2023-05-07T17:35:59.537Z,50.61
2023-05-07T17:39:08.349Z,50.75
2023-05-07T17:42:16.957Z,50.74
2023-05-07T17:45:25.533Z,51.20
2023-05-07T17:48:34.052Z,51.53
2023-05-07T17:51:53.853Z,51.47
2023-05-07T17:55:03.901Z,51.37
2023-05-07T17:58:13.060Z,52.24
2023-05-07T18:01:22.079Z,52.95
2023-05-07T18:04:32.151Z,52.88
2023-05-07T18:07:41.972Z,53.56
2023-05-07T18:10:50.494Z,54.12
2023-05-07T18:13:59.250Z,53.83
2023-05-07T18:17:07.744Z,55.20
2023-05-07T18:20:16.642Z,55.28
2023-05-07T18:23:26.937Z,56.54
2023-05-07T18:26:35.606Z,56.50
2023-05-07T18:29:44.388Z,56.52
2023-05-07T18:32:52.950Z,57.72
2023-05-07T18:36:02.269Z,56.75
2023-05-07T18:39:12.332Z,56.43
2023-05-07T18:42:21.346Z,56.12
2023-05-07T18:45:30.080Z,57.14
2023-05-07T18:48:38.616Z,56.83
2023-05-07T18:51:47.216Z,56.78
2023-05-07T18:54:57.892Z,57.39
2023-05-07T18:58:06.657Z,59.87
2023-05-07T19:01:15.449Z,62.73
2023-05-07T19:04:24.646Z,64.14
2023-05-07T19:07:33.453Z,64.39
2023-05-07T19:10:43.371Z,65.86
2023-05-07T19:13:52.161Z,65.70
2023-05-07T19:17:01.887Z,65.45
2023-05-07T19:20:11.722Z,67.12
2023-05-07T19:23:20.297Z,65.75
2023-05-07T19:26:30.739Z,66.00
2023-05-07T19:29:39.238Z,64.97
2023-05-07T19:32:47.919Z,64.21
2023-05-07T19:35:58.549Z,65.58
2023-05-07T19:39:07.832Z,65.84
2023-05-07T19:42:20.334Z,67.07
2023-05-07T19:45:28.926Z,68.29
2023-05-07T19:48:37.778Z,68.22
2023-05-07T19:51:46.385Z,68.23
2023-05-07T19:54:55.233Z,67.88
2023-05-07T19:58:09.023Z,68.38
2023-05-07T20:01:17.825Z,69.14
2023-05-07T20:04:30.400Z,67.96
2023-05-07T20:07:39.348Z,67.52
2023-05-07T20:10:48.856Z,66.42
2023-05-07T20:13:58.961Z,64.76
2023-05-07T20:17:07.664Z,64.33
2023-05-07T20:20:16.166Z,62.97
2023-05-07T20:23:24.964Z,63.34
2023-05-07T20:26:33.489Z,63.29
2023-05-07T20:29:43.285Z,62.56
2023-05-07T20:32:53.854Z,61.92
2023-05-07T20:36:02.782Z,62.93
2023-05-07T20:39:14.603Z,63.38
2023-05-07T20:42:24.466Z,64.04
2023-05-07T20:45:34.651Z,64.68
2023-05-07T20:48:43.450Z,64.62
2023-05-07T20:51:52.241Z,66.00
2023-05-07T20:55:01.148Z,65.36
2023-05-07T20:58:09.613Z,65.71
2023-05-07T21:01:19.601Z,65.44
2023-05-07T21:04:29.357Z,65.05
2023-05-07T21:07:38.139Z,65.80
2023-05-07T21:10:46.847Z,65.13
2023-05-07T21:13:55.385Z,65.12
2023-05-07T21:17:07.188Z,65.01
2023-05-07T21:20:16.232Z,65.03
2023-05-07T21:23:25.126Z,64.70
2023-05-07T21:26:33.958Z,65.31
2023-05-07T21:29:42.459Z,66.77
2023-05-07T21:32:53.054Z,66.43
2023-05-07T21:36:01.954Z,66.44
2023-05-07T21:39:11.089Z,66.73
2023-05-07T21:42:21.254Z,67.40
2023-05-07T21:45:31.294Z,67.51
2023-05-07T21:48:41.410Z,67.97
2023-05-07T21:51:50.140Z,67.83
2023-05-07T21:54:58.664Z,68.67
2023-05-07T21:58:07.564Z,68.28
2023-05-07T22:01:16.284Z,69.04
2023-05-07T22:04:26.340Z,68.45
2023-05-07T22:07:34.785Z,69.87
2023-05-07T22:10:43.373Z,70.17
2023-05-07T22:13:52.247Z,70.75
2023-05-07T22:17:01.084Z,70.67
2023-05-07T22:20:12.530Z,71.32
2023-05-07T22:23:21.458Z,71.65
2023-05-07T22:26:29.997Z,71.96
2023-05-07T22:29:38.545Z,71.71
2023-05-07T22:32:47.299Z,72.47
2023-05-07T22:35:57.385Z,72.88
2023-05-07T22:39:07.121Z,73.03
2023-05-07T22:42:16.286Z,73.54
2023-05-07T22:45:24.983Z,73.45
2023-05-07T22:48:34.926Z,73.89
2023-05-07T22:51:45.107Z,73.66
2023-05-07T22:54:53.672Z,73.90
2023-05-07T22:58:03.053Z,74.40
2023-05-07T23:01:14.884Z,74.85
2023-05-07T23:04:23.658Z,75.30
2023-05-07T23:07:33.684Z,76.56
2023-05-07T23:10:42.138Z,76.59
2023-05-07T23:13:50.632Z,77.11
2023-05-07T23:16:59.648Z,77.58
2023-05-07T23:20:09.501Z,77.47
2023-05-07T23:23:19.361Z,77.18
2023-05-07T23:26:29.327Z,77.22
2023-05-07T23:29:39.105Z,77.46
2023-05-07T23:32:47.954Z,77.04
2023-05-07T23:36:03.533Z,77.22
2023-05-07T23:39:13.724Z,77.19
2023-05-07T23:42:22.943Z,77.74
2023-05-07T23:45:31.703Z,77.15
2023-05-07T23:48:40.229Z,77.30
2023-05-07T23:51:48.867Z,78.14
2023-05-07T23:54:59.341Z,78.09
2023-05-07T23:58:08.104Z,78.01
